馬公航空站 - ATIS

METAR RCQC 161700Z 03015G25KT 8000 -RA SCT008 BKN014 BKN021 19/19 Q1011 0.2 RMK A2987=

站台狀態:Online
最後更新:2022-05-17 01:30:01